Time;durP1;ratioP1;P1;durP2;ratioP2;P2;SDS_P1;SDS_P2;PMS_P1;PMS_P2;Temp;Humidity;BMP_temperature;BMP_pressure;BME280_temperature;BME280_humidity;BME280_pressure;Samples;Min_cycle;Max_cycle;Signal;HPM_P1;HPM_P2
2021/12/26 00:03:49;;;;;;;1.52;0.93;;;3.00;93.10;;;;;;10311393;28;20051;-72
2021/12/26 00:08:50;;;;;;;1.90;1.02;;;3.00;93.10;;;;;;10320746;28;20057;-72
2021/12/26 00:13:53;;;;;;;2.60;0.93;;;3.00;93.10;;;;;;10303617;28;20026;-73
2021/12/26 00:18:54;;;;;;;1.95;1.10;;;3.00;93.00;;;;;;10303080;28;20365;-72
2021/12/26 00:23:57;;;;;;;2.67;1.10;;;3.00;93.00;;;;;;10317011;28;20015;-72
2021/12/26 00:28:59;;;;;;;3.28;0.95;;;3.00;93.00;;;;;;10315592;28;20026;-72
2021/12/26 00:34:00;;;;;;;1.17;0.73;;;2.90;93.00;;;;;;10320689;28;20117;-67
2021/12/26 00:39:00;;;;;;;2.97;1.00;;;2.90;92.90;;;;;;10306736;28;20099;-72
2021/12/26 00:44:01;;;;;;;1.50;0.95;;;2.90;92.90;;;;;;10305363;28;20480;-64
2021/12/26 00:49:04;;;;;;;1.10;0.85;;;2.90;92.90;;;;;;10308822;28;20073;-70
2021/12/26 00:54:05;;;;;;;0.95;0.80;;;2.80;92.80;;;;;;10306837;28;20062;-66
2021/12/26 00:59:06;;;;;;;1.25;0.85;;;2.90;92.80;;;;;;10308413;28;20128;-70
2021/12/26 01:04:07;;;;;;;3.47;1.00;;;2.90;92.80;;;;;;10325090;28;20164;-69
2021/12/26 01:09:11;;;;;;;1.23;0.85;;;2.80;92.80;;;;;;10311592;28;20525;-65
2021/12/26 01:14:14;;;;;;;1.05;0.75;;;2.80;92.80;;;;;;10319687;28;20537;-73
2021/12/26 01:19:18;;;;;;;1.80;1.00;;;2.80;92.80;;;;;;10313627;28;20062;-73
2021/12/26 01:24:19;;;;;;;2.08;0.98;;;2.80;92.70;;;;;;10305551;28;20053;-72
2021/12/26 01:29:20;;;;;;;2.45;1.10;;;2.80;92.70;;;;;;10303415;28;20081;-72
2021/12/26 01:34:20;;;;;;;2.70;0.85;;;2.70;92.70;;;;;;10303022;28;20043;-67
2021/12/26 01:39:21;;;;;;;2.50;1.08;;;2.80;92.70;;;;;;10295776;28;20415;-73
2021/12/26 01:44:22;;;;;;;1.45;0.90;;;2.70;92.70;;;;;;10322287;28;20134;-69
2021/12/26 01:49:27;;;;;;;1.55;1.10;;;2.70;92.60;;;;;;10309816;28;20022;-71
2021/12/26 01:54:38;;;;;;;1.52;1.08;;;2.70;92.60;;;;;;10298333;28;20101;-66
2021/12/26 01:59:40;;;;;;;1.83;0.88;;;2.70;92.60;;;;;;10302180;28;20038;-65
2021/12/26 02:04:43;;;;;;;2.83;1.15;;;2.70;92.60;;;;;;10314587;28;20042;-68
2021/12/26 02:09:44;;;;;;;2.00;1.08;;;2.70;92.50;;;;;;10293188;28;20623;-73
2021/12/26 02:14:45;;;;;;;3.40;0.98;;;3.00;92.60;;;;;;10311173;28;20103;-73
2021/12/26 02:19:48;;;;;;;1.65;0.80;;;3.00;92.50;;;;;;10313890;28;20066;-67
2021/12/26 02:25:23;;;;;;;2.13;1.00;;;2.60;92.40;;;;;;10300190;28;20560;-66
2021/12/26 02:30:24;;;;;;;1.85;1.10;;;2.60;92.40;;;;;;10307226;28;20030;-73
2021/12/26 02:35:25;;;;;;;1.45;0.90;;;2.60;92.40;;;;;;10301430;28;20050;-70
2021/12/26 02:40:27;;;;;;;1.20;0.88;;;2.60;92.40;;;;;;10321749;28;20476;-73
2021/12/26 02:45:27;;;;;;;2.00;0.88;;;2.60;92.30;;;;;;10292571;28;20409;-64
2021/12/26 02:50:30;;;;;;;1.42;1.20;;;2.60;92.30;;;;;;10321493;28;20026;-73
2021/12/26 02:55:32;;;;;;;2.40;1.30;;;1.70;92.00;;;;;;10308125;28;20042;-73
2021/12/26 03:00:37;;;;;;;2.92;0.93;;;2.60;92.30;;;;;;10310159;28;20030;-69
2021/12/26 03:05:42;;;;;;;2.28;1.27;;;2.60;92.20;;;;;;10319069;28;20069;-74
2021/12/26 03:10:44;;;;;;;1.33;0.82;;;2.50;92.20;;;;;;10318651;28;20558;-74
2021/12/26 03:15:45;;;;;;;1.45;0.77;;;2.50;92.20;;;;;;10315363;28;20524;-73
2021/12/26 03:20:48;;;;;;;1.77;0.95;;;2.50;92.20;;;;;;10312018;28;20022;-71
2021/12/26 03:25:49;;;;;;;1.67;1.05;;;2.50;92.20;;;;;;10302577;28;20284;-74
2021/12/26 03:30:51;;;;;;;2.15;0.93;;;2.50;92.20;;;;;;10297772;28;20646;-73
2021/12/26 03:35:52;;;;;;;2.45;1.10;;;2.50;92.10;;;;;;10298814;28;20039;-73
2021/12/26 03:40:54;;;;;;;1.63;0.90;;;2.50;92.10;;;;;;10312895;28;20433;-73
2021/12/26 03:45:55;;;;;;;2.95;0.95;;;2.50;92.10;;;;;;10310128;28;20109;-62
2021/12/26 03:50:57;;;;;;;2.50;1.13;;;2.50;92.10;;;;;;10294118;28;20548;-73
2021/12/26 03:55:58;;;;;;;1.67;1.00;;;2.40;92.00;;;;;;10306036;28;20042;-70
2021/12/26 04:00:59;;;;;;;1.85;1.05;;;2.50;92.00;;;;;;10298950;28;20055;-63
2021/12/26 04:06:00;;;;;;;1.45;1.13;;;2.50;92.00;;;;;;10304392;28;20050;-70
2021/12/26 04:11:01;;;;;;;3.58;1.40;;;2.40;91.90;;;;;;10292185;28;20052;-63
2021/12/26 04:16:02;;;;;;;1.48;0.88;;;2.40;91.90;;;;;;10312259;28;20038;-68
2021/12/26 04:21:05;;;;;;;3.00;1.40;;;2.40;91.90;;;;;;10294404;28;20058;-67
2021/12/26 04:26:06;;;;;;;2.78;1.20;;;2.40;91.90;;;;;;10302093;28;20039;-69
2021/12/26 04:31:06;;;;;;;3.13;1.20;;;2.40;91.90;;;;;;10315577;28;20031;-66
2021/12/26 04:36:07;;;;;;;2.88;1.00;;;2.90;92.00;;;;;;10328316;28;20058;-72
2021/12/26 04:41:10;;;;;;;2.22;1.23;;;2.40;91.80;;;;;;10318996;28;20038;-73
2021/12/26 04:46:11;;;;;;;4.10;1.33;;;2.40;91.80;;;;;;10293474;28;20509;-71
2021/12/26 04:51:12;;;;;;;3.25;1.30;;;2.40;91.80;;;;;;10297023;28;20035;-73
2021/12/26 04:56:13;;;;;;;2.25;1.38;;;2.40;91.80;;;;;;10296663;28;20056;-72
2021/12/26 05:01:14;;;;;;;1.95;1.40;;;2.40;91.80;;;;;;10296669;28;20114;-66
2021/12/26 05:06:15;;;;;;;2.58;1.42;;;2.60;91.80;;;;;;10296281;28;20077;-70
2021/12/26 05:11:16;;;;;;;2.05;1.30;;;2.30;91.70;;;;;;10296168;28;20030;-71
2021/12/26 05:16:16;;;;;;;2.72;0.98;;;2.30;91.70;;;;;;10296116;28;20077;-70
2021/12/26 05:21:17;;;;;;;1.85;1.02;;;2.30;91.70;;;;;;10295347;28;20110;-73
2021/12/26 05:26:18;;;;;;;3.33;1.17;;;2.30;91.70;;;;;;10295354;28;20027;-73
2021/12/26 05:31:19;;;;;;;2.60;1.00;;;2.30;91.70;;;;;;10294594;28;20049;-72
2021/12/26 05:36:19;;;;;;;2.45;1.38;;;2.30;91.60;;;;;;10294925;28;20389;-71
2021/12/26 05:41:20;;;;;;;1.95;1.20;;;2.20;91.60;;;;;;10294707;28;20054;-69
2021/12/26 05:46:21;;;;;;;3.00;1.40;;;2.30;91.70;;;;;;10294577;28;20121;-67
2021/12/26 05:51:22;;;;;;;2.03;1.02;;;2.20;91.60;;;;;;10294654;28;20023;-64
2021/12/26 05:56:22;;;;;;;3.53;1.60;;;2.30;91.60;;;;;;10294429;28;20046;-67
2021/12/26 06:01:23;;;;;;;3.22;1.30;;;2.20;91.60;;;;;;10294445;28;20079;-66
2021/12/26 06:06:24;;;;;;;1.35;1.20;;;2.20;91.60;;;;;;10293865;28;20047;-73
2021/12/26 06:11:25;;;;;;;2.67;1.60;;;2.20;91.60;;;;;;10293556;28;20054;-70
2021/12/26 06:16:26;;;;;;;2.00;1.10;;;2.20;91.60;;;;;;10293257;28;20054;-73
2021/12/26 06:21:26;;;;;;;2.05;1.17;;;2.20;91.50;;;;;;10293115;28;20150;-70
2021/12/26 06:26:29;;;;;;;3.13;1.50;;;2.20;91.60;;;;;;10293035;28;20062;-68
2021/12/26 06:31:30;;;;;;;3.45;1.40;;;2.20;91.60;;;;;;10292850;28;20413;-73
2021/12/26 06:36:31;;;;;;;2.00;1.23;;;2.20;91.60;;;;;;10292853;28;20117;-70
2021/12/26 06:41:33;;;;;;;2.33;1.30;;;2.20;91.60;;;;;;10291595;28;20124;-74
2021/12/26 06:46:35;;;;;;;2.63;1.25;;;2.20;91.50;;;;;;10292363;28;20421;-66
2021/12/26 06:51:35;;;;;;;5.05;1.50;;;2.20;91.50;;;;;;10291696;28;20031;-68
2021/12/26 06:56:36;;;;;;;2.03;1.33;;;2.10;91.50;;;;;;10291886;28;20042;-72
2021/12/26 07:01:37;;;;;;;3.28;1.60;;;2.10;91.50;;;;;;10291452;28;20033;-71
2021/12/26 07:06:38;;;;;;;2.55;1.58;;;2.10;91.40;;;;;;10291312;28;20605;-71
2021/12/26 07:11:39;;;;;;;2.72;1.20;;;2.20;91.40;;;;;;10291888;28;20035;-73
2021/12/26 07:16:39;;;;;;;2.30;1.20;;;2.10;91.40;;;;;;10291123;28;20440;-72
2021/12/26 07:21:41;;;;;;;2.22;1.50;;;2.10;91.40;;;;;;10291087;28;20022;-68
2021/12/26 07:26:42;;;;;;;4.20;1.42;;;2.10;91.40;;;;;;10291076;28;20042;-70
2021/12/26 07:31:42;;;;;;;2.25;1.50;;;3.50;91.70;;;;;;10291374;28;20432;-71
2021/12/26 07:36:43;;;;;;;3.08;1.63;;;2.10;91.30;;;;;;10290780;28;20078;-70
2021/12/26 07:41:44;;;;;;;2.58;1.45;;;2.10;91.30;;;;;;10290902;28;20023;-72
2021/12/26 07:46:45;;;;;;;2.47;1.63;;;2.10;91.30;;;;;;10290693;28;20034;-71
2021/12/26 07:51:47;;;;;;;2.67;1.48;;;2.10;91.30;;;;;;10291053;28;20097;-72
2021/12/26 07:56:48;;;;;;;4.38;1.90;;;2.10;91.30;;;;;;10291833;28;20038;-69
2021/12/26 08:01:49;;;;;;;3.22;1.60;;;2.10;91.30;;;;;;10290400;28;20471;-68
2021/12/26 08:06:50;;;;;;;2.17;1.42;;;2.10;91.30;;;;;;10290255;28;20054;-69
2021/12/26 08:11:51;;;;;;;2.78;1.55;;;2.10;91.30;;;;;;10289932;28;20031;-72
2021/12/26 08:16:52;;;;;;;2.10;1.40;;;2.10;91.30;;;;;;10289571;28;20074;-71
2021/12/26 08:21:54;;;;;;;3.05;1.73;;;2.10;91.50;;;;;;10289845;28;20515;-73
2021/12/26 08:26:55;;;;;;;3.22;1.63;;;2.10;91.20;;;;;;10289643;28;20037;-72
2021/12/26 08:31:58;;;;;;;3.75;1.80;;;2.80;91.40;;;;;;10289705;28;20019;-73
2021/12/26 08:37:03;;;;;;;2.92;1.50;;;2.10;91.20;;;;;;10289983;28;20070;-74
2021/12/26 08:42:06;;;;;;;3.45;1.98;;;2.10;91.20;;;;;;10289674;28;20038;-73
2021/12/26 08:47:10;;;;;;;3.65;1.85;;;2.10;91.10;;;;;;10289400;28;20458;-73
2021/12/26 08:52:10;;;;;;;3.28;1.73;;;2.50;91.20;;;;;;10290921;28;20026;-67
2021/12/26 08:57:11;;;;;;;4.90;2.03;;;2.10;91.10;;;;;;10289402;28;20031;-62
2021/12/26 09:02:13;;;;;;;2.83;1.70;;;2.10;91.00;;;;;;10289271;28;20445;-70
2021/12/26 09:07:14;;;;;;;3.42;1.80;;;2.20;91.00;;;;;;10292332;28;20055;-70
2021/12/26 09:12:16;;;;;;;3.30;2.08;;;2.80;91.20;;;;;;10295937;28;20495;-64
2021/12/26 09:17:17;;;;;;;4.38;1.83;;;2.30;91.10;;;;;;10295855;28;20035;-71
2021/12/26 09:22:18;;;;;;;4.30;1.92;;;2.30;91.30;;;;;;10295592;28;20035;-68
2021/12/26 09:27:19;;;;;;;2.28;1.60;;;2.30;91.10;;;;;;10295542;28;20038;-68
2021/12/26 09:32:20;;;;;;;3.78;1.80;;;2.40;91.10;;;;;;10295420;28;20461;-70
2021/12/26 09:37:20;;;;;;;3.95;2.25;;;2.40;91.10;;;;;;10294956;28;20051;-64
2021/12/26 09:42:24;;;;;;;3.10;1.88;;;2.40;91.20;;;;;;10295166;28;20033;-69
2021/12/26 09:47:24;;;;;;;3.20;1.90;;;2.50;91.20;;;;;;10294617;28;20026;-68
2021/12/26 09:52:25;;;;;;;3.75;2.00;;;2.50;91.30;;;;;;10294394;28;20425;-68
2021/12/26 09:57:27;;;;;;;5.82;2.03;;;2.50;91.40;;;;;;10294198;28;20067;-70
2021/12/26 10:02:30;;;;;;;4.05;1.83;;;2.50;91.40;;;;;;10294009;28;20027;-68
2021/12/26 10:07:32;;;;;;;3.75;2.00;;;2.60;91.40;;;;;;10293691;28;20059;-70
2021/12/26 10:12:41;;;;;;;3.92;2.13;;;2.60;91.50;;;;;;10293990;28;20026;-67
2021/12/26 10:17:41;;;;;;;5.20;2.00;;;2.60;91.40;;;;;;10293453;28;20074;-70
2021/12/26 10:22:42;;;;;;;3.45;2.10;;;3.10;91.60;;;;;;10293583;28;20074;-63
2021/12/26 10:27:45;;;;;;;5.13;2.05;;;2.70;91.50;;;;;;10293175;28;20020;-67
2021/12/26 10:32:47;;;;;;;4.22;2.08;;;2.80;91.60;;;;;;10293050;28;20122;-68
2021/12/26 10:37:52;;;;;;;6.03;2.00;;;2.80;91.70;;;;;;10292590;28;20097;-72
2021/12/26 10:42:59;;;;;;;2.72;1.70;;;2.90;91.40;;;;;;10292443;28;20118;-69
2021/12/26 10:48:05;;;;;;;4.47;2.17;;;3.00;91.60;;;;;;10292213;28;20031;-69
2021/12/26 10:53:08;;;;;;;4.55;2.15;;;3.20;91.60;;;;;;10292277;28;20027;-66
2021/12/26 10:58:15;;;;;;;4.30;2.25;;;3.20;91.70;;;;;;10291355;28;20554;-68
2021/12/26 11:03:27;;;;;;;4.70;2.03;;;3.40;91.80;;;;;;10291518;28;20034;-62
2021/12/26 11:08:31;;;;;;;5.57;2.30;;;4.80;91.90;;;;;;10291299;28;20051;-62
2021/12/26 11:13:32;;;;;;;4.00;2.08;;;3.50;91.80;;;;;;10291264;28;20054;-64
2021/12/26 11:18:34;;;;;;;3.95;1.85;;;3.60;91.70;;;;;;10291179;28;20070;-63
2021/12/26 11:23:39;;;;;;;7.82;2.58;;;3.70;91.80;;;;;;10290862;28;20458;-68
2021/12/26 11:28:42;;;;;;;4.90;2.03;;;3.90;91.70;;;;;;10290095;28;20078;-69
2021/12/26 11:33:44;;;;;;;6.72;2.08;;;3.70;91.90;;;;;;10290476;28;20484;-63
2021/12/26 11:38:46;;;;;;;4.55;2.17;;;3.80;92.10;;;;;;10289957;28;20038;-63
2021/12/26 11:43:58;;;;;;;4.72;2.38;;;3.80;92.10;;;;;;10290392;28;20119;-68
2021/12/26 11:49:14;;;;;;;3.58;1.80;;;3.80;92.10;;;;;;10289472;28;20062;-62
2021/12/26 11:54:37;;;;;;;6.22;2.63;;;3.90;92.20;;;;;;10290477;28;20023;-63
2021/12/26 11:59:56;;;;;;;4.88;2.42;;;3.80;92.20;;;;;;10290040;28;20074;-72
2021/12/26 12:05:07;;;;;;;;;;;3.80;92.20;;;;;;10290179;28;20031;-71
2021/12/26 12:10:35;;;;;;;8.07;2.42;;;3.80;92.70;;;;;;10289734;28;20009;-70
2021/12/26 12:15:47;;;;;;;6.10;2.40;;;3.90;92.80;;;;;;10289871;28;20503;-67
2021/12/26 12:21:07;;;;;;;5.88;2.13;;;4.00;92.60;;;;;;10290554;28;20042;-69
2021/12/26 12:26:08;;;;;;;6.13;2.50;;;3.90;92.70;;;;;;10289382;28;20023;-77
2021/12/26 12:31:10;;;;;;;5.10;2.45;;;3.90;93.00;;;;;;10289668;28;20027;-72
2021/12/26 12:36:24;;;;;;;5.68;2.60;;;3.90;92.80;;;;;;10289848;28;20043;-72
2021/12/26 12:41:53;;;;;;;4.93;2.70;;;3.90;92.90;;;;;;10326732;23;20069;-72
2021/12/26 12:48:00;;;;;;;5.90;2.53;;;3.80;92.90;;;;;;10333264;28;20053;-72
2021/12/26 12:53:59;;;;;;;4.60;2.55;;;3.80;92.70;;;;;;10348344;28;20173;-72
2021/12/26 12:59:20;;;;;;;3.50;2.40;;;4.10;92.70;;;;;;10339731;28;20490;-73
2021/12/26 13:05:20;;;;;;;6.05;2.83;;;4.10;92.80;;;;;;10343652;28;20027;-72
2021/12/26 13:11:21;;;;;;;6.63;2.92;;;3.70;92.60;;;;;;10359358;28;20033;-74
2021/12/26 13:17:21;;;;;;;5.30;2.95;;;3.80;92.50;;;;;;10343241;28;20045;-72
2021/12/26 13:23:21;;;;;;;4.55;2.58;;;3.70;92.40;;;;;;10355825;28;22215;-74
2021/12/26 13:28:42;;;;;;;6.47;3.05;;;3.70;92.20;;;;;;10356358;28;20026;-76
2021/12/26 13:33:49;;;;;;;7.15;3.10;;;3.70;92.40;;;;;;10360611;28;20042;-74
2021/12/26 13:38:53;;;;;;;5.72;3.00;;;3.60;92.40;;;;;;10366884;28;20042;-74
2021/12/26 13:43:56;;;;;;;6.63;3.20;;;3.60;92.50;;;;;;10362155;28;20057;-72
2021/12/26 13:48:58;;;;;;;12.90;3.75;;;3.70;92.30;;;;;;10355014;28;20026;-71
2021/12/26 13:54:08;;;;;;;7.45;3.50;;;3.70;92.30;;;;;;10361116;28;20120;-72
2021/12/26 13:59:09;;;;;;;5.95;3.28;;;3.70;92.30;;;;;;10355087;28;20057;-72
2021/12/26 14:04:10;;;;;;;7.82;3.22;;;3.60;92.30;;;;;;10354470;28;20049;-71
2021/12/26 14:09:11;;;;;;;5.82;3.33;;;3.60;92.60;;;;;;10355113;28;20030;-73
2021/12/26 14:14:12;;;;;;;6.25;3.40;;;3.70;92.40;;;;;;10346948;28;20509;-83
2021/12/26 14:19:13;;;;;;;5.43;3.20;;;3.60;92.40;;;;;;10359430;28;20045;-72
2021/12/26 14:24:23;;;;;;;6.13;3.47;;;3.60;92.40;;;;;;10358522;28;20023;-72
2021/12/26 14:29:24;;;;;;;7.47;3.60;;;3.60;92.40;;;;;;10355793;28;20109;-75
2021/12/26 14:34:31;;;;;;;9.38;3.92;;;3.60;92.40;;;;;;10357972;28;20038;-77
2021/12/26 14:39:40;;;;;;;8.07;3.83;;;3.60;92.40;;;;;;10363195;28;20038;-77
2021/12/26 14:45:21;;;;;;;6.78;3.72;;;3.60;92.40;;;;;;10343798;28;20504;-77
2021/12/26 14:51:30;;;;;;;6.97;3.95;;;4.20;92.50;;;;;;10327815;28;20412;-77
2021/12/26 14:57:31;;;;;;;8.07;3.65;;;3.50;92.30;;;;;;10333287;28;20037;-74
2021/12/26 15:03:31;;;;;;;7.07;3.53;;;3.40;92.30;;;;;;10327230;28;20014;-77
2021/12/26 15:09:31;;;;;;;6.55;3.28;;;3.40;92.30;;;;;;10331436;28;20274;-78
2021/12/26 15:15:32;;;;;;;8.65;3.67;;;3.40;92.30;;;;;;10333311;28;20061;-74
2021/12/26 15:21:32;;;;;;;5.95;3.38;;;3.50;92.40;;;;;;10330492;28;20039;-72
2021/12/26 15:27:45;;;;;;;5.68;3.38;;;3.40;92.40;;;;;;10330752;28;20022;-73
2021/12/26 15:33:51;;;;;;;7.45;3.42;;;3.40;92.50;;;;;;10327103;28;20349;-74
2021/12/26 15:39:52;;;;;;;5.95;3.10;;;3.30;92.50;;;;;;10345871;28;20050;-74
2021/12/26 15:45:33;;;;;;;8.18;3.58;;;3.40;92.60;;;;;;10351204;28;20046;-77
2021/12/26 15:51:33;;;;;;;5.72;3.35;;;3.40;92.60;;;;;;10337537;28;20030;-74
2021/12/26 15:57:33;;;;;;;7.20;3.25;;;3.40;92.60;;;;;;10334017;28;20300;-74
2021/12/26 16:03:34;;;;;;;6.50;3.28;;;3.40;92.60;;;;;;10329166;28;20038;-73
2021/12/26 16:09:34;;;;;;;6.78;3.20;;;4.00;92.80;;;;;;10333335;28;20405;-74
2021/12/26 16:15:12;;;;;;;6.85;3.75;;;3.40;92.70;;;;;;10331629;28;20366;-75
2021/12/26 16:20:53;;;;;;;8.27;3.50;;;3.40;92.70;;;;;;10345521;28;20247;-78
2021/12/26 16:26:53;;;;;;;6.78;3.22;;;4.60;93.00;;;;;;10366342;28;20048;-77
2021/12/26 16:32:54;;;;;;;8.55;3.28;;;3.40;92.70;;;;;;10365851;28;20465;-81
2021/12/26 16:50:15;;;;;;;6.03;3.72;;;3.40;92.90;;;;;;10310894;28;20306;-72
2021/12/26 16:55:16;;;;;;;7.20;3.58;;;3.50;92.80;;;;;;10308560;28;20038;-72
2021/12/26 17:00:17;;;;;;;7.30;3.90;;;3.40;92.80;;;;;;10288943;28;20046;-74
2021/12/26 17:05:19;;;;;;;9.18;4.15;;;3.40;92.80;;;;;;10312110;28;20035;-74
2021/12/26 17:10:59;;;;;;;6.90;4.15;;;3.30;92.80;;;;;;10308344;28;20106;-74
2021/12/26 17:17:00;;;;;;;7.97;4.45;;;3.30;92.70;;;;;;10306411;28;20042;-76
2021/12/26 17:23:00;;;;;;;6.70;4.32;;;3.30;92.60;;;;;;10304601;28;20044;-72
2021/12/26 17:29:01;;;;;;;9.52;4.78;;;3.30;92.80;;;;;;10301363;28;20293;-73
2021/12/26 17:35:01;;;;;;;12.38;4.75;;;3.30;94.10;;;;;;10287684;28;20026;-77
2021/12/26 17:41:02;;;;;;;9.00;4.30;;;3.40;93.10;;;;;;10299163;28;20047;-72
2021/12/26 17:47:02;;;;;;;10.05;4.70;;;3.40;92.90;;;;;;10324473;28;20144;-72
2021/12/26 17:53:03;;;;;;;10.25;3.97;;;3.50;93.00;;;;;;10402042;28;20095;-72
2021/12/26 17:59:03;;;;;;;10.32;4.32;;;3.60;93.10;;;;;;10408159;28;20049;-72
2021/12/26 18:05:04;;;;;;;7.28;3.78;;;3.50;93.10;;;;;;10405550;28;20029;-78
2021/12/26 18:11:08;;;;;;;8.93;3.70;;;3.50;93.10;;;;;;10405718;28;20041;-73
2021/12/26 18:17:05;;;;;;;11.18;4.70;;;3.60;93.10;;;;;;10394784;28;20131;-79
2021/12/26 18:23:05;;;;;;;10.40;4.75;;;4.40;93.50;;;;;;10394766;28;20026;-75
2021/12/26 18:29:06;;;;;;;9.20;4.03;;;3.90;93.10;;;;;;10397148;28;20132;-77
2021/12/26 18:35:06;;;;;;;8.57;3.88;;;3.80;93.10;;;;;;10409349;28;20074;-78
2021/12/26 18:41:07;;;;;;;7.45;4.38;;;3.80;93.10;;;;;;10402864;28;20090;-78
